Time;durP1;ratioP1;P1;durP2;ratioP2;P2;SDS_P1;SDS_P2;PMS_P1;PMS_P2;Temp;Humidity;BMP_temperature;BMP_pressure;BME280_temperature;BME280_humidity;BME280_pressure;Samples;Min_cycle;Max_cycle;Signal;HPM_P1;HPM_P2
2022/12/01 00:00:45;;;;;;;108.82;27.67;;;5.50;99.90;;;;;;5104019;27;20122;-78
2022/12/01 00:03:12;;;;;;;101.10;25.83;;;5.50;99.90;;;;;;5151379;27;20034;-79
2022/12/01 00:05:37;;;;;;;102.88;26.30;;;5.50;99.90;;;;;;5136677;27;20304;-83
2022/12/01 00:08:04;;;;;;;111.30;28.00;;;5.50;99.90;;;;;;5083763;27;20049;-79
2022/12/01 00:10:32;;;;;;;95.50;25.67;;;5.50;99.90;;;;;;5116965;27;20042;-79
2022/12/01 00:13:00;;;;;;;96.68;25.20;;;5.50;99.90;;;;;;5116703;27;20053;-80
2022/12/01 00:15:28;;;;;;;105.28;28.17;;;5.60;99.90;;;;;;5119337;27;20061;-79
2022/12/01 00:17:54;;;;;;;119.93;27.80;;;5.60;99.90;;;;;;5150255;27;20047;-79
2022/12/01 00:20:20;;;;;;;110.93;26.73;;;5.50;99.90;;;;;;5103612;27;20475;-82
2022/12/01 00:22:47;;;;;;;114.50;27.60;;;5.60;99.90;;;;;;5117718;27;20047;-79
2022/12/01 00:25:16;;;;;;;116.78;28.25;;;5.60;99.90;;;;;;5118108;27;20043;-80
2022/12/01 00:27:42;;;;;;;113.05;27.02;;;5.60;99.90;;;;;;5116068;27;20124;-77
2022/12/01 00:30:10;;;;;;;121.03;30.23;;;5.60;99.90;;;;;;5143896;27;20043;-79
2022/12/01 00:32:36;;;;;;;122.32;27.52;;;5.60;99.90;;;;;;5118177;27;20074;-77
2022/12/01 00:35:03;;;;;;;117.78;28.40;;;5.60;99.90;;;;;;5135919;27;20042;-78
2022/12/01 00:37:30;;;;;;;124.82;27.60;;;5.60;99.90;;;;;;5153896;27;20111;-79
2022/12/01 00:39:57;;;;;;;109.50;26.55;;;5.60;99.90;;;;;;5132844;27;20043;-77
2022/12/01 00:42:24;;;;;;;124.47;29.52;;;5.60;99.90;;;;;;5136900;27;20043;-78
2022/12/01 00:44:49;;;;;;;120.47;31.05;;;5.60;99.90;;;;;;5155652;27;20050;-78
2022/12/01 00:47:15;;;;;;;110.07;26.63;;;5.60;99.90;;;;;;5129459;27;20042;-77
2022/12/01 00:49:44;;;;;;;115.20;27.55;;;5.60;99.90;;;;;;5155257;27;20228;-76
2022/12/01 00:52:14;;;;;;;129.10;30.35;;;5.60;99.90;;;;;;5116403;27;20062;-77
2022/12/01 00:54:39;;;;;;;116.65;27.85;;;5.60;99.90;;;;;;5133483;27;20047;-79
2022/12/01 00:57:07;;;;;;;129.52;29.60;;;5.60;99.90;;;;;;5128362;27;20208;-79
2022/12/01 00:59:32;;;;;;;127.07;28.55;;;5.60;99.90;;;;;;5098717;27;20463;-79
2022/12/01 01:01:59;;;;;;;116.57;28.25;;;5.60;99.90;;;;;;5102124;27;20051;-77
2022/12/01 01:04:24;;;;;;;121.45;29.55;;;5.60;99.90;;;;;;5081346;27;20507;-78
2022/12/01 01:06:51;;;;;;;129.30;30.20;;;5.60;99.90;;;;;;5114409;27;20104;-77
2022/12/01 01:09:17;;;;;;;134.15;29.55;;;5.60;99.90;;;;;;5117235;27;20035;-77
2022/12/01 01:11:42;;;;;;;117.63;27.55;;;5.60;99.90;;;;;;5146687;27;20104;-78
2022/12/01 01:14:08;;;;;;;110.30;29.30;;;5.60;99.90;;;;;;5115218;27;20061;-77
2022/12/01 01:16:34;;;;;;;118.22;28.70;;;5.60;99.90;;;;;;5134407;27;20051;-77
2022/12/01 01:19:00;;;;;;;135.05;29.83;;;5.60;99.90;;;;;;5143622;27;20039;-77
2022/12/01 01:21:26;;;;;;;121.78;28.75;;;5.60;99.90;;;;;;5115832;27;20092;-76
2022/12/01 01:23:53;;;;;;;130.25;28.80;;;5.50;99.90;;;;;;5116888;27;20050;-80
2022/12/01 01:26:30;;;;;;;126.82;29.63;;;5.60;99.90;;;;;;5116720;27;20061;-74
2022/12/01 01:29:02;;;;;;;124.18;30.25;;;5.60;99.90;;;;;;5135086;27;20082;-75
2022/12/01 01:31:29;;;;;;;130.88;28.02;;;5.60;99.90;;;;;;5116903;27;20043;-76
2022/12/01 01:33:56;;;;;;;131.73;31.38;;;5.50;99.90;;;;;;5134593;27;20481;-75
2022/12/01 01:36:23;;;;;;;142.90;30.85;;;5.50;99.90;;;;;;5134963;27;20051;-75
2022/12/01 01:38:50;;;;;;;123.45;28.10;;;5.60;99.90;;;;;;5134892;27;20432;-74
2022/12/01 01:41:17;;;;;;;135.73;31.35;;;5.50;99.90;;;;;;5099698;27;20142;-75
2022/12/01 01:43:43;;;;;;;;;;;5.60;99.90;;;;;;5116957;27;20107;-75
2022/12/01 01:46:11;;;;;;;131.00;28.13;;;5.50;99.90;;;;;;5134556;27;19923;-84
2022/12/01 01:48:38;;;;;;;132.40;29.85;;;5.60;99.90;;;;;;5134194;27;20487;-75
2022/12/01 01:51:05;;;;;;;138.43;30.30;;;5.60;99.90;;;;;;5134748;27;20102;-75
2022/12/01 01:53:31;;;;;;;146.13;31.55;;;5.50;99.90;;;;;;5134409;27;20058;-76
2022/12/01 01:55:57;;;;;;;142.35;29.77;;;5.50;99.90;;;;;;5134032;27;20043;-75
2022/12/01 01:58:23;;;;;;;144.52;31.92;;;5.60;99.90;;;;;;5115840;27;20066;-75
2022/12/01 02:00:49;;;;;;;148.60;31.73;;;5.50;99.90;;;;;;5116090;27;20043;-75
2022/12/01 02:03:17;;;;;;;128.63;30.23;;;5.60;99.90;;;;;;5134205;27;20474;-75
2022/12/01 02:05:46;;;;;;;149.60;32.22;;;5.50;99.90;;;;;;5134846;27;20053;-75
2022/12/01 02:08:11;;;;;;;138.68;29.80;;;5.60;99.90;;;;;;5116004;27;20050;-82
2022/12/01 02:11:03;;;;;;;132.88;30.25;;;5.60;99.90;;;;;;5114789;27;20355;-75
2022/12/01 02:13:56;;;;;;;148.07;30.42;;;5.60;99.90;;;;;;5134069;27;20047;-76
2022/12/01 02:16:43;;;;;;;131.15;29.25;;;5.60;99.90;;;;;;5134167;27;20043;-75
2022/12/01 02:19:36;;;;;;;138.77;31.10;;;5.50;99.90;;;;;;5115379;27;20527;-75
2022/12/01 02:22:39;;;;;;;132.02;28.50;;;5.60;99.90;;;;;;5116240;27;20138;-75
2022/12/01 02:25:21;;;;;;;138.23;31.33;;;5.60;99.90;;;;;;5115317;27;20475;-76
2022/12/01 02:28:06;;;;;;;135.40;29.70;;;5.50;99.90;;;;;;5116422;27;20047;-75
2022/12/01 02:30:38;;;;;;;155.50;33.28;;;5.60;99.90;;;;;;5107675;27;20467;-75
2022/12/01 02:33:30;;;;;;;143.80;31.77;;;5.60;99.90;;;;;;5115910;27;20043;-78
2022/12/01 02:36:17;;;;;;;127.65;29.95;;;5.60;99.90;;;;;;5101666;27;20104;-76
2022/12/01 02:39:05;;;;;;;132.60;30.63;;;5.60;99.90;;;;;;5133731;27;20051;-75
2022/12/01 02:41:48;;;;;;;148.43;34.10;;;5.60;99.90;;;;;;5133976;27;20047;-75
2022/12/01 02:44:22;;;;;;;150.88;34.42;;;5.60;99.90;;;;;;5115123;27;20051;-76
2022/12/01 02:47:01;;;;;;;127.95;31.15;;;5.60;99.90;;;;;;5133718;27;20085;-76
2022/12/01 02:49:32;;;;;;;146.75;32.53;;;5.60;99.90;;;;;;5134323;27;20074;-76
2022/12/01 02:51:59;;;;;;;126.18;28.63;;;5.60;99.90;;;;;;5114744;27;20122;-76
2022/12/01 02:54:30;;;;;;;129.10;28.55;;;5.60;99.90;;;;;;5133389;27;20052;-75
2022/12/01 02:56:55;;;;;;;141.35;32.33;;;5.60;99.90;;;;;;5115278;27;20050;-75
2022/12/01 02:59:21;;;;;;;141.05;32.47;;;5.60;99.90;;;;;;5133450;27;20047;-77
2022/12/01 03:02:12;;;;;;;139.65;31.55;;;5.60;99.90;;;;;;5115365;28;20043;-76
2022/12/01 03:04:52;;;;;;;135.90;32.70;;;5.60;99.90;;;;;;5133839;28;20077;-75
2022/12/01 03:07:55;;;;;;;144.82;32.58;;;5.60;99.90;;;;;;5133130;28;20047;-80
2022/12/01 03:10:26;;;;;;;144.02;34.88;;;5.60;99.90;;;;;;5133037;28;20039;-76
2022/12/01 03:13:07;;;;;;;137.60;30.75;;;5.50;99.90;;;;;;5133916;28;20440;-75
2022/12/01 03:15:34;;;;;;;127.80;30.65;;;5.50;99.90;;;;;;5133737;28;20042;-75
2022/12/01 03:18:29;;;;;;;130.00;31.27;;;5.60;99.90;;;;;;5115239;28;20430;-76
2022/12/01 03:21:21;;;;;;;149.70;33.05;;;5.50;99.90;;;;;;5129176;27;20126;-79
2022/12/01 03:23:51;;;;;;;137.40;30.38;;;5.60;99.90;;;;;;5125923;27;20402;-77
2022/12/01 03:26:21;;;;;;;139.80;33.53;;;5.60;99.90;;;;;;5137407;27;20043;-79
2022/12/01 03:29:03;;;;;;;138.75;32.50;;;5.50;99.90;;;;;;5137371;27;20126;-76
2022/12/01 03:31:39;;;;;;;129.13;30.45;;;5.50;99.90;;;;;;5119437;27;20221;-81
2022/12/01 03:34:27;;;;;;;128.33;31.17;;;5.60;99.90;;;;;;5137520;27;20363;-77
2022/12/01 03:37:08;;;;;;;144.55;37.00;;;5.60;99.90;;;;;;5119187;27;20050;-78
2022/12/01 03:39:37;;;;;;;141.90;34.10;;;5.50;99.90;;;;;;5137074;27;20078;-78
2022/12/01 03:42:14;;;;;;;130.68;32.30;;;5.50;99.90;;;;;;5118698;27;20043;-78
2022/12/01 03:44:46;;;;;;;;;;;5.50;99.90;;;;;;5119309;27;20456;-75
2022/12/01 03:47:19;;;;;;;133.80;32.17;;;5.50;99.90;;;;;;5137524;27;19923;-77
2022/12/01 03:49:48;;;;;;;136.55;34.83;;;5.50;99.90;;;;;;5136793;27;20079;-76
2022/12/01 03:52:41;;;;;;;134.13;34.00;;;5.50;99.90;;;;;;5118558;27;20450;-76
2022/12/01 03:55:16;;;;;;;130.85;30.92;;;5.50;99.90;;;;;;5137194;27;20228;-75
2022/12/01 03:58:04;;;;;;;139.52;33.92;;;5.50;99.90;;;;;;5136691;27;20459;-78
2022/12/01 04:00:31;;;;;;;137.02;32.65;;;5.60;99.90;;;;;;5118850;27;20525;-76
2022/12/01 04:02:59;;;;;;;131.52;30.88;;;5.50;99.90;;;;;;5136383;27;20058;-76
2022/12/01 04:05:25;;;;;;;133.35;34.78;;;5.50;99.90;;;;;;5136730;27;20047;-77
2022/12/01 04:07:51;;;;;;;128.73;33.28;;;5.50;99.90;;;;;;5118420;27;20467;-75
2022/12/01 04:10:17;;;;;;;126.13;33.30;;;5.60;99.90;;;;;;5118124;27;20046;-76
2022/12/01 04:12:43;;;;;;;124.15;31.95;;;5.50;99.90;;;;;;5101473;27;20043;-76
2022/12/01 04:15:11;;;;;;;121.18;32.83;;;5.50;99.90;;;;;;5137521;27;20122;-76
2022/12/01 04:17:37;;;;;;;135.40;31.88;;;5.60;99.90;;;;;;5136217;27;20539;-77
2022/12/01 04:20:05;;;;;;;120.95;33.75;;;5.50;99.90;;;;;;5137303;27;20455;-78
2022/12/01 04:22:31;;;;;;;129.43;31.92;;;5.50;99.90;;;;;;5136274;27;20440;-77
2022/12/01 04:24:57;;;;;;;124.55;31.38;;;5.50;99.90;;;;;;5136349;27;20047;-76
2022/12/01 04:27:23;;;;;;;131.95;33.10;;;5.60;99.90;;;;;;5101350;27;20074;-76
2022/12/01 04:29:49;;;;;;;137.48;33.20;;;5.50;99.90;;;;;;5136200;27;20432;-77
2022/12/01 04:32:15;;;;;;;134.38;33.10;;;5.50;99.90;;;;;;5117775;27;20046;-79
2022/12/01 04:34:40;;;;;;;133.23;33.22;;;5.50;99.90;;;;;;5117315;27;20417;-78
2022/12/01 04:37:07;;;;;;;129.73;32.78;;;5.50;99.90;;;;;;5100877;27;20055;-79
2022/12/01 04:39:33;;;;;;;125.10;33.22;;;5.50;99.90;;;;;;5119322;27;20112;-76
2022/12/01 04:41:59;;;;;;;136.03;32.77;;;5.60;99.90;;;;;;5136514;27;20043;-77
2022/12/01 04:44:24;;;;;;;127.82;33.33;;;5.60;99.90;;;;;;5136487;27;20047;-80
2022/12/01 04:46:51;;;;;;;137.07;34.20;;;5.50;99.90;;;;;;5117525;27;20101;-76
2022/12/01 04:49:18;;;;;;;132.90;32.95;;;5.50;99.90;;;;;;5100381;27;20043;-77
2022/12/01 04:51:44;;;;;;;127.43;31.48;;;5.50;99.90;;;;;;5113727;28;20120;-76
2022/12/01 04:54:10;;;;;;;125.47;31.70;;;5.50;99.90;;;;;;5114339;28;20468;-76
2022/12/01 04:56:36;;;;;;;124.47;34.42;;;5.50;99.90;;;;;;5115177;28;20052;-80
2022/12/01 04:59:01;;;;;;;123.93;32.70;;;5.50;99.90;;;;;;5113904;28;20138;-78
2022/12/01 05:01:27;;;;;;;134.20;32.58;;;5.50;99.90;;;;;;5115624;28;20062;-76
2022/12/01 05:03:53;;;;;;;132.73;32.92;;;5.50;99.90;;;;;;5113712;28;20054;-76
2022/12/01 05:06:22;;;;;;;129.43;33.78;;;5.40;99.90;;;;;;5114256;28;20043;-76
2022/12/01 05:08:48;;;;;;;129.35;33.08;;;5.40;99.90;;;;;;5113608;28;20147;-76
2022/12/01 05:11:15;;;;;;;126.55;31.42;;;5.40;99.90;;;;;;5115437;28;20044;-77
2022/12/01 05:13:43;;;;;;;128.23;31.17;;;5.40;99.90;;;;;;5114741;28;20044;-75
2022/12/01 05:16:10;;;;;;;120.93;31.20;;;5.40;99.90;;;;;;5114705;28;20510;-76
2022/12/01 05:18:36;;;;;;;135.75;35.13;;;5.50;99.90;;;;;;5114615;28;20054;-79
2022/12/01 05:21:02;;;;;;;124.35;31.42;;;5.50;99.90;;;;;;5113542;28;20047;-75
2022/12/01 05:23:32;;;;;;;131.10;33.15;;;5.50;99.90;;;;;;5114783;28;20054;-77
2022/12/01 05:25:58;;;;;;;129.38;32.78;;;5.40;99.90;;;;;;5113876;28;20044;-76
2022/12/01 05:28:25;;;;;;;129.00;34.03;;;5.40;99.90;;;;;;5096880;28;20054;-75
2022/12/01 05:30:52;;;;;;;;;;;5.40;99.90;;;;;;5115204;28;20089;-77
2022/12/01 05:33:17;;;;;;;130.88;32.10;;;5.50;99.90;;;;;;5113785;28;20013;-75
2022/12/01 05:35:43;;;;;;;122.40;32.83;;;5.40;99.90;;;;;;5115224;28;20098;-76
2022/12/01 05:38:09;;;;;;;134.70;33.42;;;5.40;99.90;;;;;;5113836;28;20079;-76
2022/12/01 05:40:35;;;;;;;130.25;31.60;;;5.40;99.90;;;;;;5119459;28;20047;-77
2022/12/01 05:43:01;;;;;;;136.00;34.63;;;5.40;99.90;;;;;;5121291;28;20051;-76
2022/12/01 05:45:27;;;;;;;131.43;32.97;;;5.40;99.90;;;;;;5118064;28;20289;-76
2022/12/01 05:47:54;;;;;;;122.93;32.28;;;5.40;99.90;;;;;;5117828;28;20387;-76
2022/12/01 05:50:20;;;;;;;124.15;32.72;;;5.40;99.90;;;;;;5116288;28;20425;-76
2022/12/01 05:52:46;;;;;;;136.50;36.60;;;5.40;99.90;;;;;;5115093;28;20082;-75
2022/12/01 05:55:12;;;;;;;131.23;33.35;;;5.40;99.90;;;;;;5115908;28;20112;-78
2022/12/01 05:57:37;;;;;;;139.18;35.63;;;5.30;99.90;;;;;;5115890;28;20491;-77
2022/12/01 06:00:04;;;;;;;135.43;33.60;;;5.30;99.90;;;;;;5114040;28;20047;-80
2022/12/01 06:02:30;;;;;;;147.50;35.00;;;5.30;99.90;;;;;;5112933;28;20046;-77
2022/12/01 06:04:56;;;;;;;131.73;33.15;;;5.30;99.90;;;;;;5113298;28;20043;-77
2022/12/01 06:07:24;;;;;;;137.88;34.72;;;5.30;99.90;;;;;;5114279;28;20047;-79
2022/12/01 06:09:50;;;;;;;132.48;33.00;;;5.30;99.90;;;;;;5114063;28;20331;-76
2022/12/01 06:12:16;;;;;;;140.50;35.35;;;5.30;99.90;;;;;;5114939;28;20044;-77
2022/12/01 06:14:41;;;;;;;142.73;34.53;;;5.30;99.90;;;;;;5113750;28;20047;-76
2022/12/01 06:17:07;;;;;;;142.55;34.35;;;5.30;99.90;;;;;;5112360;28;20180;-75
2022/12/01 06:19:33;;;;;;;137.38;35.15;;;5.30;99.90;;;;;;5113685;28;20091;-75
2022/12/01 06:21:58;;;;;;;145.05;36.60;;;5.30;99.90;;;;;;5113576;28;20432;-76
2022/12/01 06:24:24;;;;;;;147.50;34.58;;;5.30;99.90;;;;;;5112587;28;20048;-74
2022/12/01 06:26:50;;;;;;;159.88;39.20;;;5.30;99.90;;;;;;5113608;27;20044;-76
2022/12/01 06:29:15;;;;;;;127.68;32.92;;;5.30;99.90;;;;;;5113531;28;20043;-75
2022/12/01 06:31:41;;;;;;;133.75;34.03;;;5.30;99.90;;;;;;5112760;28;20048;-77
2022/12/01 06:34:07;;;;;;;142.48;33.53;;;5.30;99.90;;;;;;5095637;28;20047;-77
2022/12/01 06:36:33;;;;;;;149.55;35.42;;;5.30;99.90;;;;;;5095604;28;20047;-78
2022/12/01 06:38:58;;;;;;;144.02;34.80;;;5.30;99.90;;;;;;5113277;28;20100;-76
2022/12/01 06:41:24;;;;;;;152.55;36.15;;;5.30;99.90;;;;;;5112058;28;20043;-75
2022/12/01 06:43:50;;;;;;;148.68;33.47;;;5.30;99.90;;;;;;5112151;28;20044;-82
2022/12/01 06:46:15;;;;;;;136.50;34.13;;;5.30;99.90;;;;;;5113939;28;20048;-76
2022/12/01 06:48:41;;;;;;;148.85;36.10;;;5.30;99.90;;;;;;5113314;28;20543;-86
2022/12/01 06:51:07;;;;;;;138.43;33.08;;;5.30;99.90;;;;;;5113579;27;20049;-77
2022/12/01 06:53:32;;;;;;;145.50;34.88;;;5.30;99.90;;;;;;5115901;28;20103;-78
2022/12/01 06:56:00;;;;;;;143.82;34.78;;;5.30;99.90;;;;;;5114835;28;20035;-77
2022/12/01 06:58:25;;;;;;;141.20;35.00;;;5.40;99.90;;;;;;5133442;27;20083;-77
2022/12/01 07:00:51;;;;;;;144.75;32.78;;;5.30;99.90;;;;;;5133519;27;20039;-77
2022/12/01 07:03:17;;;;;;;142.90;35.00;;;5.30;99.90;;;;;;5114961;28;20043;-77
2022/12/01 07:05:43;;;;;;;138.93;34.30;;;5.30;99.90;;;;;;5115619;28;20051;-77
2022/12/01 07:08:12;;;;;;;141.27;35.53;;;5.30;99.90;;;;;;5133354;28;20458;-76
2022/12/01 07:10:37;;;;;;;138.65;33.88;;;5.30;99.90;;;;;;5133060;28;20035;-77
2022/12/01 07:13:03;;;;;;;130.55;33.65;;;5.30;99.90;;;;;;5134022;28;20122;-77
2022/12/01 07:15:29;;;;;;;143.90;34.72;;;5.30;99.90;;;;;;5097675;28;20049;-79
2022/12/01 07:17:54;;;;;;;147.05;35.53;;;5.30;99.90;;;;;;5098507;28;20050;-78
2022/12/01 07:20:20;;;;;;;141.07;35.95;;;5.30;99.90;;;;;;5133212;28;20413;-77
2022/12/01 07:22:46;;;;;;;150.18;36.38;;;5.30;99.90;;;;;;5133221;28;20039;-84
2022/12/01 07:25:11;;;;;;;144.50;35.97;;;5.30;99.90;;;;;;5133139;28;20047;-77
2022/12/01 07:27:37;;;;;;;145.43;34.03;;;5.30;99.90;;;;;;5133395;28;20050;-79
2022/12/01 07:30:03;;;;;;;151.52;33.55;;;5.30;99.90;;;;;;5114804;28;20042;-77
2022/12/01 07:32:29;;;;;;;139.30;33.60;;;5.30;99.90;;;;;;5133233;28;20046;-76
2022/12/01 07:34:55;;;;;;;154.80;36.45;;;5.30;99.90;;;;;;5098688;28;20039;-77
2022/12/01 07:37:20;;;;;;;142.60;35.45;;;5.30;99.90;;;;;;5133428;28;20039;-77
2022/12/01 07:39:46;;;;;;;138.82;33.55;;;5.30;99.90;;;;;;5132961;28;20050;-77
2022/12/01 07:42:11;;;;;;;143.15;34.72;;;5.30;99.90;;;;;;5132878;28;20047;-76
2022/12/01 07:44:37;;;;;;;147.43;35.17;;;5.30;99.90;;;;;;5133089;28;20039;-81
2022/12/01 07:47:03;;;;;;;155.15;36.45;;;5.30;99.90;;;;;;5114245;28;20069;-76
2022/12/01 07:49:29;;;;;;;135.35;34.42;;;5.30;99.90;;;;;;5132771;28;20047;-76
2022/12/01 07:51:54;;;;;;;152.68;34.58;;;5.30;99.90;;;;;;5113882;28;20051;-77
2022/12/01 07:54:20;;;;;;;155.95;35.58;;;5.40;99.90;;;;;;5132808;28;20134;-77
2022/12/01 07:56:46;;;;;;;152.88;35.83;;;5.30;99.90;;;;;;5132524;28;20051;-76
2022/12/01 07:59:12;;;;;;;158.90;36.85;;;5.30;99.90;;;;;;5114420;28;20119;-76
2022/12/01 08:01:37;;;;;;;152.52;34.90;;;5.30;99.90;;;;;;5132782;28;20049;-75
2022/12/01 08:04:03;;;;;;;154.27;37.15;;;5.40;99.90;;;;;;5097210;28;20047;-76
2022/12/01 08:06:29;;;;;;;155.98;35.42;;;5.40;99.90;;;;;;5114863;28;20047;-76
2022/12/01 08:08:55;;;;;;;139.30;35.55;;;5.40;99.90;;;;;;5116211;27;20042;-77
2022/12/01 08:11:23;;;;;;;148.20;35.03;;;5.50;99.90;;;;;;5118242;27;20150;-77
2022/12/01 08:13:50;;;;;;;143.77;35.80;;;5.40;99.90;;;;;;5136518;27;20053;-81
2022/12/01 08:16:22;;;;;;;144.98;35.10;;;5.30;99.90;;;;;;5101231;27;20459;-78
2022/12/01 08:18:49;;;;;;;145.23;33.13;;;5.40;99.90;;;;;;5118612;27;20082;-76
2022/12/01 08:21:17;;;;;;;155.55;38.13;;;5.40;99.90;;;;;;5118120;27;20047;-77
2022/12/01 08:23:43;;;;;;;150.90;34.88;;;5.40;99.90;;;;;;5136411;27;20046;-76
2022/12/01 08:26:16;;;;;;;150.23;36.47;;;5.40;99.90;;;;;;5117935;27;20047;-77
2022/12/01 08:28:42;;;;;;;153.10;37.60;;;5.50;99.90;;;;;;5136226;27;20039;-76
2022/12/01 08:31:08;;;;;;;146.85;34.63;;;5.50;99.90;;;;;;5136639;27;20082;-76
2022/12/01 08:33:34;;;;;;;153.98;36.03;;;5.60;99.90;;;;;;5136124;27;20078;-79
2022/12/01 08:36:04;;;;;;;154.98;36.85;;;5.60;99.90;;;;;;5136232;27;20114;-77
2022/12/01 08:38:29;;;;;;;151.75;35.47;;;5.60;99.90;;;;;;5101071;27;20317;-77
2022/12/01 08:41:02;;;;;;;147.88;34.22;;;5.60;99.90;;;;;;5135778;27;20046;-79
2022/12/01 08:43:28;;;;;;;152.60;35.95;;;5.60;99.90;;;;;;5136829;27;20123;-78
2022/12/01 08:46:01;;;;;;;145.35;35.38;;;5.70;99.90;;;;;;5136058;27;20054;-78
2022/12/01 08:48:28;;;;;;;141.07;35.95;;;5.70;99.90;;;;;;5135999;27;20051;-77
2022/12/01 08:51:20;;;;;;;149.00;35.50;;;5.70;99.90;;;;;;5116761;27;20054;-76
2022/12/01 08:53:48;;;;;;;149.65;35.58;;;5.70;99.90;;;;;;5131706;27;20047;-77
2022/12/01 08:56:21;;;;;;;149.40;36.35;;;5.80;99.90;;;;;;5100296;27;20051;-78
2022/12/01 08:58:47;;;;;;;148.02;36.20;;;5.80;99.90;;;;;;5117503;27;20231;-76
2022/12/01 09:01:14;;;;;;;149.70;36.20;;;5.90;99.90;;;;;;5117291;27;20082;-78
2022/12/01 09:03:41;;;;;;;151.18;36.78;;;5.80;99.90;;;;;;5117929;27;20039;-77
2022/12/01 09:06:13;;;;;;;148.13;35.63;;;5.80;99.90;;;;;;5135732;27;20043;-76
2022/12/01 09:08:40;;;;;;;140.77;34.78;;;5.90;99.90;;;;;;5117082;27;20046;-76
2022/12/01 09:11:14;;;;;;;142.68;34.40;;;6.00;99.90;;;;;;5135404;27;20065;-76
2022/12/01 09:13:41;;;;;;;143.05;35.08;;;6.00;99.90;;;;;;5117050;27;20130;-76
2022/12/01 09:16:10;;;;;;;161.27;42.70;;;6.00;99.90;;;;;;5117413;27;20039;-78
2022/12/01 09:18:36;;;;;;;134.52;32.70;;;5.80;99.90;;;;;;5117084;27;20043;-79
2022/12/01 09:21:24;;;;;;;144.75;32.45;;;5.90;99.90;;;;;;5116536;27;20043;-77
2022/12/01 09:23:50;;;;;;;156.18;34.25;;;6.00;99.90;;;;;;5135998;27;20078;-80
2022/12/01 09:26:18;;;;;;;142.40;34.20;;;6.00;99.90;;;;;;5135056;27;20486;-76
2022/12/01 09:28:51;;;;;;;151.63;36.92;;;6.10;99.90;;;;;;5135220;27;20094;-76
2022/12/01 09:31:17;;;;;;;149.95;40.60;;;6.10;99.90;;;;;;5135029;27;20483;-77
2022/12/01 09:33:43;;;;;;;132.52;31.73;;;6.00;99.90;;;;;;5116621;27;20047;-76
2022/12/01 09:36:09;;;;;;;142.85;33.78;;;6.10;99.90;;;;;;5116549;27;20047;-77
2022/12/01 09:38:36;;;;;;;133.15;33.47;;;6.10;99.90;;;;;;5099934;27;20062;-79
2022/12/01 09:41:13;;;;;;;142.75;37.47;;;6.10;99.90;;;;;;5134921;27;20126;-76
2022/12/01 09:43:44;;;;;;;133.60;32.35;;;6.00;99.90;;;;;;5135318;27;20047;-75
2022/12/01 09:46:17;;;;;;;126.45;31.23;;;6.00;99.90;;;;;;5135248;27;20042;-75
2022/12/01 09:48:46;;;;;;;129.60;32.35;;;6.10;99.90;;;;;;5134646;27;20051;-76
2022/12/01 09:51:13;;;;;;;136.25;35.00;;;6.20;99.90;;;;;;5134417;27;20051;-76
2022/12/01 09:53:40;;;;;;;121.28;32.50;;;6.30;99.90;;;;;;5135005;27;20082;-77
2022/12/01 09:56:15;;;;;;;;;;;6.30;99.90;;;;;;5135665;27;20383;-76
2022/12/01 09:58:41;;;;;;;138.80;38.10;;;6.30;99.90;;;;;;5135222;27;19942;-77
2022/12/01 10:01:14;;;;;;;132.53;37.27;;;6.30;99.90;;;;;;5082517;27;20499;-76
2022/12/01 10:03:48;;;;;;;128.30;31.67;;;6.20;99.90;;;;;;5134267;27;20365;-76
2022/12/01 10:06:35;;;;;;;125.03;33.08;;;6.40;99.90;;;;;;5134472;27;20039;-77
2022/12/01 10:09:38;;;;;;;114.60;30.73;;;6.30;99.90;;;;;;5134820;27;20094;-75
2022/12/01 10:12:12;;;;;;;126.63;30.67;;;6.30;99.90;;;;;;5134714;27;20087;-76
2022/12/01 10:14:37;;;;;;;131.05;33.92;;;6.40;99.90;;;;;;5116137;27;20145;-77
2022/12/01 10:17:14;;;;;;;143.40;38.75;;;6.40;99.90;;;;;;5134072;27;20105;-79
2022/12/01 10:19:58;;;;;;;120.22;34.30;;;6.30;99.90;;;;;;5116101;27;20077;-76
2022/12/01 10:23:15;;;;;;;132.10;31.08;;;6.30;99.90;;;;;;5116122;27;20058;-78
2022/12/01 10:25:58;;;;;;;120.40;30.48;;;6.20;99.90;;;;;;5088114;27;20111;-77
2022/12/01 10:28:45;;;;;;;127.43;32.95;;;6.40;99.90;;;;;;5115954;27;20074;-79
2022/12/01 10:31:28;;;;;;;118.18;29.65;;;6.30;99.90;;;;;;5115422;27;20099;-79
2022/12/01 10:34:02;;;;;;;118.13;30.27;;;6.50;99.90;;;;;;5134309;27;20043;-77
2022/12/01 10:36:31;;;;;;;112.28;29.30;;;6.40;99.90;;;;;;5134868;27;20050;-76
2022/12/01 10:38:56;;;;;;;106.88;30.35;;;6.40;99.90;;;;;;5134076;27;20129;-77
2022/12/01 10:41:26;;;;;;;122.63;31.00;;;6.60;99.90;;;;;;5099547;27;20079;-76
2022/12/01 10:43:58;;;;;;;111.88;29.35;;;6.70;99.90;;;;;;5135349;27;20047;-76
2022/12/01 10:46:53;;;;;;;119.63;30.85;;;6.60;99.90;;;;;;5117442;27;20078;-77
2022/12/01 10:49:19;;;;;;;108.75;28.95;;;6.70;99.90;;;;;;5120483;27;20376;-78
2022/12/01 10:51:54;;;;;;;113.13;28.77;;;6.80;99.90;;;;;;5120100;28;20056;-77
2022/12/01 10:54:22;;;;;;;117.30;29.40;;;6.80;99.90;;;;;;5125825;28;20127;-77
2022/12/01 10:56:54;;;;;;;123.53;34.38;;;6.90;99.90;;;;;;5122987;28;20040;-78
2022/12/01 10:59:34;;;;;;;117.97;29.55;;;6.90;99.90;;;;;;5121041;28;20051;-78
2022/12/01 11:02:02;;;;;;;111.15;28.75;;;6.90;99.90;;;;;;5119030;28;20051;-79
2022/12/01 11:04:34;;;;;;;105.80;29.58;;;7.00;99.90;;;;;;5116629;28;20138;-77
2022/12/01 11:07:01;;;;;;;109.22;29.27;;;7.00;99.90;;;;;;5113458;28;20503;-76
2022/12/01 11:09:28;;;;;;;114.57;28.83;;;7.00;99.90;;;;;;5112652;28;20380;-77
2022/12/01 11:12:00;;;;;;;114.05;29.48;;;7.10;99.90;;;;;;5112098;28;20568;-77
2022/12/01 11:14:48;;;;;;;112.15;30.05;;;7.10;99.90;;;;;;5113118;28;20089;-76
2022/12/01 11:17:29;;;;;;;111.15;30.20;;;7.00;99.90;;;;;;5111778;28;20048;-78
2022/12/01 11:19:56;;;;;;;108.50;30.15;;;6.90;99.90;;;;;;5113545;28;20086;-77
2022/12/01 11:22:31;;;;;;;108.93;27.97;;;6.80;99.90;;;;;;5112759;28;20078;-76
2022/12/01 11:25:02;;;;;;;112.35;30.35;;;6.90;99.90;;;;;;5111699;28;20316;-75
2022/12/01 11:27:46;;;;;;;112.95;30.05;;;7.00;99.90;;;;;;5112886;28;20118;-78
2022/12/01 11:30:28;;;;;;;110.10;28.60;;;7.10;99.90;;;;;;5113130;28;20047;-76
2022/12/01 11:33:02;;;;;;;112.13;30.80;;;6.90;99.90;;;;;;5111617;28;20079;-78
2022/12/01 11:35:34;;;;;;;117.10;30.95;;;7.00;99.90;;;;;;5112997;28;20051;-78
2022/12/01 11:38:02;;;;;;;109.40;29.95;;;6.80;99.90;;;;;;5113888;28;20039;-75
2022/12/01 11:40:31;;;;;;;106.93;30.33;;;6.90;99.90;;;;;;5113420;28;20073;-81
2022/12/01 11:43:03;;;;;;;102.97;27.50;;;6.90;99.90;;;;;;5119441;28;20067;-77
2022/12/01 11:45:48;;;;;;;106.93;28.40;;;6.90;99.90;;;;;;5121286;28;20100;-77
2022/12/01 11:48:19;;;;;;;100.13;28.23;;;7.10;99.90;;;;;;5121831;28;20099;-78
2022/12/01 11:51:04;;;;;;;101.43;27.90;;;7.00;99.90;;;;;;5118312;28;20043;-77
2022/12/01 11:53:37;;;;;;;93.40;27.75;;;7.10;99.90;;;;;;5137287;27;20055;-76
2022/12/01 11:56:30;;;;;;;102.97;28.77;;;7.20;99.90;;;;;;5139116;27;20035;-79
2022/12/01 11:59:01;;;;;;;96.68;26.75;;;7.20;99.90;;;;;;5119465;27;20035;-77
2022/12/01 12:01:42;;;;;;;110.55;28.40;;;7.30;99.90;;;;;;5137385;27;20050;-77
2022/12/01 12:04:47;;;;;;;94.82;26.77;;;7.30;99.90;;;;;;5137582;27;20168;-76
2022/12/01 12:07:23;;;;;;;96.82;25.75;;;7.40;99.90;;;;;;5118889;27;20050;-78
2022/12/01 12:10:20;;;;;;;105.50;29.40;;;7.20;99.90;;;;;;5118919;27;20035;-76
2022/12/01 12:13:00;;;;;;;100.85;30.90;;;7.20;99.90;;;;;;5118629;27;20051;-77
2022/12/01 12:15:55;;;;;;;102.13;28.80;;;6.90;99.90;;;;;;5118612;27;20051;-78
2022/12/01 12:18:40;;;;;;;96.80;26.75;;;6.90;99.90;;;;;;5118699;27;20047;-77
2022/12/01 12:21:27;;;;;;;97.35;29.80;;;6.90;99.90;;;;;;5137127;27;20050;-77
2022/12/01 12:23:56;;;;;;;100.85;26.05;;;6.90;99.90;;;;;;5118622;27;20055;-83
2022/12/01 12:26:34;;;;;;;92.85;27.00;;;7.00;99.90;;;;;;5136280;27;20051;-77
2022/12/01 12:29:03;;;;;;;98.03;29.65;;;7.10;99.90;;;;;;5136535;27;20043;-77
2022/12/01 12:31:54;;;;;;;88.82;26.55;;;6.90;99.90;;;;;;5118539;27;20123;-78
2022/12/01 12:34:48;;;;;;;94.82;26.58;;;7.10;99.90;;;;;;5121508;27;20051;-78
2022/12/01 12:37:18;;;;;;;85.03;25.05;;;7.20;99.90;;;;;;5137091;27;20411;-76
2022/12/01 12:40:17;;;;;;;92.93;26.20;;;7.20;99.90;;;;;;5136413;27;20043;-78
2022/12/01 12:42:55;;;;;;;87.63;26.65;;;7.30;99.90;;;;;;5136720;27;20055;-78
2022/12/01 12:45:46;;;;;;;89.47;25.70;;;7.30;99.90;;;;;;5136502;27;20507;-77
2022/12/01 12:48:23;;;;;;;87.55;26.65;;;7.30;99.90;;;;;;5137115;27;20049;-78